createdAt,value
2022-09-13T00:01:07.080Z,1.67
2022-09-13T00:03:49.764Z,1.83
2022-09-13T00:06:32.463Z,1.85
2022-09-13T00:09:15.298Z,1.80
2022-09-13T00:11:59.420Z,1.90
2022-09-13T00:14:42.450Z,1.77
2022-09-13T00:17:25.175Z,1.73
2022-09-13T00:20:08.502Z,2.00
2022-09-13T00:22:51.328Z,1.80
2022-09-13T00:25:34.144Z,1.95
2022-09-13T00:28:18.192Z,1.90
2022-09-13T00:31:01.601Z,1.90
2022-09-13T00:33:44.433Z,1.70
2022-09-13T00:36:27.166Z,2.05
2022-09-13T00:39:10.267Z,1.85
2022-09-13T00:41:52.877Z,2.00
2022-09-13T00:44:59.964Z,1.92
2022-09-13T00:47:45.736Z,2.10
2022-09-13T00:50:31.023Z,2.30
2022-09-13T00:53:16.506Z,1.90
2022-09-13T00:56:02.511Z,2.10
2022-09-13T00:58:50.351Z,1.90
2022-09-13T01:01:34.476Z,2.17
2022-09-13T01:04:19.313Z,2.10
2022-09-13T01:07:03.174Z,2.40
2022-09-13T01:09:47.131Z,2.03
2022-09-13T01:12:33.321Z,2.00
2022-09-13T01:15:16.244Z,1.98
2022-09-13T01:17:59.106Z,2.50
2022-09-13T01:20:47.480Z,2.40
2022-09-13T01:23:48.113Z,2.10
2022-09-13T01:26:49.579Z,2.40
2022-09-13T01:29:41.442Z,2.13
2022-09-13T01:32:29.060Z,2.38
2022-09-13T01:35:18.532Z,2.20
2022-09-13T01:38:04.019Z,2.28
2022-09-13T01:40:57.525Z,2.30
2022-09-13T01:43:47.769Z,2.30
2022-09-13T01:46:33.379Z,2.10
2022-09-13T01:49:19.791Z,2.47
2022-09-13T01:52:06.210Z,2.20
2022-09-13T01:54:52.676Z,2.40
2022-09-13T01:57:40.050Z,2.05
2022-09-13T02:00:22.805Z,2.47
2022-09-13T02:03:07.364Z,2.55
2022-09-13T02:05:55.562Z,2.60
2022-09-13T02:08:40.328Z,2.38
2022-09-13T02:11:23.536Z,2.40
2022-09-13T02:14:08.154Z,2.15
2022-09-13T02:16:53.282Z,2.33
2022-09-13T02:19:37.688Z,2.65
2022-09-13T02:22:23.936Z,2.83
2022-09-13T02:25:10.602Z,2.70
2022-09-13T02:27:58.993Z,2.30
2022-09-13T02:30:44.426Z,2.40
2022-09-13T02:33:29.620Z,2.72
2022-09-13T02:36:14.516Z,2.70
2022-09-13T02:39:01.216Z,2.55
2022-09-13T02:41:47.710Z,2.40
2022-09-13T02:44:34.119Z,2.60
2022-09-13T02:47:31.886Z,2.70
2022-09-13T02:50:32.228Z,2.47
2022-09-13T02:53:18.182Z,2.53
2022-09-13T02:56:07.753Z,2.85
2022-09-13T02:58:53.270Z,3.08
2022-09-13T03:01:36.945Z,2.80
2022-09-13T03:04:20.119Z,2.78
2022-09-13T03:07:04.568Z,2.88
2022-09-13T03:09:50.151Z,2.80
2022-09-13T03:12:45.039Z,2.92
2022-09-13T03:15:33.181Z,3.00
2022-09-13T03:18:23.815Z,2.90
2022-09-13T03:21:12.964Z,3.15
2022-09-13T03:24:01.020Z,2.50
2022-09-13T03:26:47.418Z,3.03
2022-09-13T03:29:35.216Z,3.47
2022-09-13T03:32:21.124Z,3.58
2022-09-13T03:35:07.844Z,3.05
2022-09-13T03:37:55.791Z,3.05
2022-09-13T03:40:42.078Z,3.50
2022-09-13T03:43:26.614Z,3.72
2022-09-13T03:46:13.107Z,3.50
2022-09-13T03:48:56.342Z,3.80
2022-09-13T03:51:39.985Z,3.80
2022-09-13T03:54:24.442Z,3.83
2022-09-13T03:57:08.690Z,3.88
2022-09-13T03:59:52.551Z,3.67
2022-09-13T04:02:36.849Z,3.72
2022-09-13T04:05:19.517Z,3.33
2022-09-13T04:08:02.421Z,4.10
2022-09-13T04:10:45.046Z,3.58
2022-09-13T04:13:27.933Z,4.13
2022-09-13T04:16:10.731Z,3.78
2022-09-13T04:18:54.979Z,4.43
2022-09-13T04:21:38.172Z,4.53
2022-09-13T04:24:21.081Z,4.88
2022-09-13T04:27:03.942Z,4.63
2022-09-13T04:29:46.713Z,5.05
2022-09-13T04:32:29.597Z,5.30
2022-09-13T04:35:13.575Z,5.03
2022-09-13T04:37:56.350Z,5.43
2022-09-13T04:40:39.495Z,5.47
2022-09-13T04:43:22.192Z,5.70
2022-09-13T04:46:07.554Z,5.95
2022-09-13T04:48:50.531Z,6.18
2022-09-13T04:51:34.707Z,6.13
2022-09-13T04:54:17.388Z,6.38
2022-09-13T04:57:00.204Z,6.57
2022-09-13T04:59:42.864Z,7.18
2022-09-13T05:02:25.525Z,6.32
2022-09-13T05:05:08.882Z,6.97
2022-09-13T05:07:52.850Z,7.32
2022-09-13T05:10:35.465Z,8.50
2022-09-13T05:13:18.274Z,7.50
2022-09-13T05:16:01.549Z,7.93
2022-09-13T05:18:45.393Z,8.45
2022-09-13T05:21:28.560Z,8.18
2022-09-13T05:24:12.932Z,7.65
2022-09-13T05:26:55.631Z,7.72
2022-09-13T05:29:38.350Z,8.32
2022-09-13T05:32:21.212Z,8.32
2022-09-13T05:35:03.979Z,8.15
2022-09-13T05:37:46.616Z,8.32
2022-09-13T05:40:31.210Z,8.05
2022-09-13T05:43:14.177Z,9.38
2022-09-13T05:46:01.758Z,8.43
2022-09-13T05:48:44.865Z,9.13
2022-09-13T05:51:27.987Z,8.60
2022-09-13T05:54:12.094Z,8.52
2022-09-13T05:56:57.550Z,9.45
2022-09-13T05:59:40.516Z,7.25
2022-09-13T06:02:23.390Z,8.20
2022-09-13T06:05:06.644Z,7.57
2022-09-13T06:07:49.356Z,8.13
2022-09-13T06:10:32.082Z,7.70
2022-09-13T06:13:16.348Z,8.05
2022-09-13T06:15:59.965Z,8.05
2022-09-13T06:18:42.751Z,7.88
2022-09-13T06:21:28.953Z,7.68
2022-09-13T06:24:12.109Z,6.80
2022-09-13T06:26:55.038Z,7.75
2022-09-13T06:29:39.173Z,7.05
2022-09-13T06:32:21.883Z,6.88
2022-09-13T06:35:04.685Z,7.38
2022-09-13T06:37:47.389Z,6.88
2022-09-13T06:40:30.242Z,6.47
2022-09-13T06:43:13.054Z,6.55
2022-09-13T06:45:59.989Z,7.13
2022-09-13T06:48:44.025Z,6.72
2022-09-13T06:51:26.691Z,6.55
2022-09-13T06:54:09.756Z,6.70
2022-09-13T06:56:52.420Z,6.07
2022-09-13T06:59:35.859Z,5.75
2022-09-13T07:02:19.968Z,6.00
2022-09-13T07:05:02.626Z,5.43
2022-09-13T07:07:45.235Z,5.60
2022-09-13T07:10:27.867Z,5.13
2022-09-13T07:13:10.658Z,5.60
2022-09-13T07:15:53.402Z,5.60
2022-09-13T07:18:37.962Z,5.47
2022-09-13T07:21:20.950Z,5.35
2022-09-13T07:24:03.925Z,5.45
2022-09-13T07:26:46.834Z,5.65
2022-09-13T07:29:29.631Z,5.45
2022-09-13T07:32:12.328Z,5.18
2022-09-13T07:34:56.461Z,4.88
2022-09-13T07:37:39.040Z,5.00
2022-09-13T07:40:21.712Z,4.97
2022-09-13T07:43:04.550Z,4.68
2022-09-13T07:45:47.219Z,3.80
2022-09-13T07:48:33.509Z,4.30
2022-09-13T07:51:18.581Z,3.95
2022-09-13T07:54:02.264Z,4.05
2022-09-13T07:56:45.490Z,3.25
2022-09-13T07:59:30.315Z,3.40
2022-09-13T08:02:13.347Z,3.42
2022-09-13T08:04:56.090Z,2.88
2022-09-13T08:07:40.128Z,3.30
2022-09-13T08:10:22.828Z,2.60
2022-09-13T08:13:05.570Z,2.40
2022-09-13T08:15:48.617Z,2.45
2022-09-13T08:18:31.780Z,2.38
2022-09-13T08:21:14.789Z,2.20
2022-09-13T08:24:00.746Z,2.05
2022-09-13T08:26:43.704Z,1.85
2022-09-13T08:29:26.536Z,1.80
2022-09-13T08:32:09.254Z,1.88
2022-09-13T08:34:53.083Z,1.45
2022-09-13T08:37:36.096Z,0.80
2022-09-13T08:40:20.423Z,0.90
2022-09-13T08:43:08.115Z,0.80
2022-09-13T08:45:51.892Z,0.75
2022-09-13T08:48:35.693Z,0.80
2022-09-13T08:51:25.156Z,0.50
2022-09-13T08:54:10.734Z,0.75
2022-09-13T08:56:59.563Z,0.65
2022-09-13T08:59:47.701Z,0.50
2022-09-13T09:02:42.894Z,0.80
2022-09-13T09:05:26.476Z,0.68
2022-09-13T09:08:16.531Z,0.70
2022-09-13T09:11:00.674Z,0.50
2022-09-13T09:13:48.764Z,0.80
2022-09-13T09:16:34.645Z,0.57
2022-09-13T09:19:21.309Z,0.50
2022-09-13T09:22:07.171Z,0.47
2022-09-13T09:24:52.115Z,0.60
2022-09-13T09:27:34.720Z,0.50
2022-09-13T09:30:18.723Z,0.60
2022-09-13T09:33:06.994Z,0.43
2022-09-13T09:35:54.071Z,0.45
2022-09-13T09:38:41.487Z,0.45
2022-09-13T09:41:27.081Z,0.55
2022-09-13T09:44:16.189Z,0.47
2022-09-13T09:47:03.900Z,0.75
2022-09-13T09:50:06.091Z,0.47
2022-09-13T09:52:51.728Z,0.52
2022-09-13T09:55:38.697Z,0.70
2022-09-13T09:58:36.927Z,0.65
2022-09-13T10:01:25.438Z,0.63
2022-09-13T10:04:19.605Z,1.00
2022-09-13T10:07:17.829Z,0.50
2022-09-13T10:10:03.977Z,0.60
2022-09-13T10:12:50.424Z,0.90
2022-09-13T10:15:33.954Z,0.60
2022-09-13T10:18:42.241Z,0.70
2022-09-13T10:21:25.885Z,0.60
2022-09-13T10:24:17.444Z,0.50
2022-09-13T10:27:00.994Z,0.70
2022-09-13T10:29:48.818Z,0.70
2022-09-13T10:32:32.125Z,0.68
2022-09-13T10:35:17.630Z,0.60
2022-09-13T10:38:01.780Z,1.00
2022-09-13T10:40:49.096Z,0.60
2022-09-13T10:43:32.517Z,0.40
2022-09-13T10:46:17.117Z,0.80
2022-09-13T10:48:59.989Z,1.00
2022-09-13T10:51:42.698Z,0.50
2022-09-13T10:54:26.843Z,0.57
2022-09-13T10:57:28.296Z,0.60
2022-09-13T11:00:12.340Z,0.50
2022-09-13T11:03:06.219Z,0.95
2022-09-13T11:05:50.801Z,0.60
2022-09-13T11:08:43.239Z,0.70
2022-09-13T11:11:30.367Z,0.75
2022-09-13T11:14:18.988Z,0.70
2022-09-13T11:17:04.878Z,0.65
2022-09-13T11:19:57.267Z,0.65
2022-09-13T11:22:47.946Z,0.50
2022-09-13T11:25:33.540Z,0.82
2022-09-13T11:28:21.379Z,0.50
2022-09-13T11:31:19.487Z,0.70
2022-09-13T11:34:10.008Z,0.70
2022-09-13T11:36:59.577Z,0.70
2022-09-13T11:39:47.047Z,0.65
2022-09-13T11:42:36.946Z,0.70
2022-09-13T11:45:22.527Z,0.60
2022-09-13T11:48:14.393Z,0.55
2022-09-13T11:51:01.439Z,0.65
2022-09-13T11:53:50.429Z,0.60
2022-09-13T11:56:35.578Z,0.73
2022-09-13T11:59:22.182Z,0.88
2022-09-13T12:02:13.386Z,0.50
2022-09-13T12:05:18.373Z,0.52
2022-09-13T12:08:03.992Z,0.43
2022-09-13T12:10:47.862Z,0.73
2022-09-13T12:13:32.612Z,0.75
2022-09-13T12:16:18.749Z,0.70
2022-09-13T12:19:04.365Z,0.50
2022-09-13T12:21:48.244Z,0.80
2022-09-13T12:24:35.956Z,0.55
2022-09-13T12:27:23.848Z,0.88
2022-09-13T12:30:08.635Z,0.55
2022-09-13T12:32:58.101Z,0.75
2022-09-13T12:35:46.664Z,0.45
2022-09-13T12:39:02.224Z,0.40
2022-09-13T12:41:50.588Z,0.70
2022-09-13T12:44:44.243Z,0.40
2022-09-13T12:47:47.328Z,0.57
2022-09-13T12:50:47.854Z,0.50
2022-09-13T12:53:45.524Z,0.50
2022-09-13T12:56:46.054Z,0.60
2022-09-13T12:59:37.328Z,0.50
2022-09-13T13:02:25.820Z,0.90
2022-09-13T13:05:19.085Z,0.65
2022-09-13T13:08:03.290Z,0.60
2022-09-13T13:10:46.076Z,0.60
2022-09-13T13:13:33.477Z,0.52
2022-09-13T13:16:25.493Z,0.57
2022-09-13T13:19:29.176Z,0.50
2022-09-13T13:22:30.500Z,0.25
2022-09-13T13:25:31.519Z,0.50
2022-09-13T13:28:29.002Z,0.50
2022-09-13T13:31:12.152Z,0.70
2022-09-13T13:33:58.563Z,0.80
2022-09-13T13:36:46.638Z,0.60
2022-09-13T13:39:39.985Z,0.40
2022-09-13T13:42:26.535Z,0.95
2022-09-13T13:45:17.744Z,0.70
2022-09-13T13:48:15.523Z,0.47
2022-09-13T13:51:15.691Z,0.50
2022-09-13T13:54:03.549Z,0.90
2022-09-13T13:56:48.138Z,0.50
2022-09-13T13:59:33.205Z,0.52
2022-09-13T14:02:16.944Z,0.60
2022-09-13T14:05:05.299Z,0.60
2022-09-13T14:08:04.374Z,0.52
2022-09-13T14:10:49.975Z,0.50
2022-09-13T14:13:41.737Z,0.63
2022-09-13T14:16:36.815Z,0.93
2022-09-13T14:19:24.485Z,0.80
2022-09-13T14:22:08.227Z,0.90
2022-09-13T14:24:52.997Z,0.77
2022-09-13T14:27:37.572Z,0.80
2022-09-13T14:30:22.031Z,0.73
2022-09-13T14:33:05.330Z,0.65
2022-09-13T14:35:48.043Z,0.70
2022-09-13T14:38:33.745Z,0.50
2022-09-13T14:41:18.707Z,0.50
2022-09-13T14:44:23.735Z,0.80
2022-09-13T14:47:09.725Z,0.43
2022-09-13T14:49:55.408Z,0.80
2022-09-13T14:52:39.533Z,0.68
2022-09-13T14:55:24.386Z,0.63
2022-09-13T14:58:09.875Z,0.70
2022-09-13T15:00:53.819Z,0.60
2022-09-13T15:03:36.706Z,0.70
2022-09-13T15:06:24.470Z,0.60
2022-09-13T15:09:18.990Z,0.40
2022-09-13T15:12:02.759Z,0.82
2022-09-13T15:14:48.208Z,0.57
2022-09-13T15:17:30.807Z,0.50
2022-09-13T15:20:13.981Z,0.75
2022-09-13T15:22:56.711Z,0.77
2022-09-13T15:25:39.975Z,0.50
2022-09-13T15:28:26.764Z,0.88
2022-09-13T15:31:11.222Z,0.77
2022-09-13T15:34:08.806Z,0.60
2022-09-13T15:37:03.210Z,0.57
2022-09-13T15:39:48.437Z,0.70
2022-09-13T15:42:31.236Z,0.80
2022-09-13T15:45:13.989Z,0.70
2022-09-13T15:47:58.033Z,0.50
2022-09-13T15:50:41.780Z,0.63
2022-09-13T15:53:24.474Z,0.55
2022-09-13T15:56:10.785Z,0.47
2022-09-13T15:58:53.427Z,0.60
2022-09-13T16:01:36.138Z,0.60
2022-09-13T16:04:20.535Z,0.45
2022-09-13T16:07:03.180Z,0.60
2022-09-13T16:09:46.408Z,0.77
2022-09-13T16:12:29.115Z,0.70
2022-09-13T16:15:12.793Z,0.70
2022-09-13T16:17:55.589Z,0.60
2022-09-13T16:20:39.575Z,0.40
2022-09-13T16:23:22.206Z,0.40
2022-09-13T16:26:08.244Z,0.45
2022-09-13T16:28:50.846Z,0.40
2022-09-13T16:31:33.656Z,0.50
2022-09-13T16:34:16.608Z,0.40
2022-09-13T16:37:01.119Z,0.60
2022-09-13T16:39:45.406Z,0.50
2022-09-13T16:42:28.154Z,0.30
2022-09-13T16:45:11.914Z,0.40
2022-09-13T16:47:54.722Z,0.30
2022-09-13T16:50:40.203Z,0.40
2022-09-13T16:53:24.268Z,0.40
2022-09-13T16:56:10.865Z,0.30
2022-09-13T16:58:54.186Z,0.30
2022-09-13T17:01:36.977Z,0.45
2022-09-13T17:04:19.758Z,0.70
2022-09-13T17:07:04.926Z,0.98
2022-09-13T17:09:49.340Z,0.88
2022-09-13T17:12:31.970Z,0.47
2022-09-13T17:15:14.721Z,0.60
2022-09-13T17:17:57.377Z,0.57
2022-09-13T17:20:44.532Z,0.68
2022-09-13T17:23:28.387Z,0.63
2022-09-13T17:26:12.583Z,0.50
2022-09-13T17:28:55.237Z,0.45
2022-09-13T17:31:38.234Z,0.60
2022-09-13T17:34:20.976Z,0.50
2022-09-13T17:37:05.815Z,0.80
2022-09-13T17:39:48.690Z,0.63
2022-09-13T17:42:32.794Z,0.60
2022-09-13T17:45:15.745Z,0.70
2022-09-13T17:47:59.022Z,0.45
2022-09-13T17:50:42.179Z,0.43
2022-09-13T17:53:24.950Z,0.90
2022-09-13T17:56:10.729Z,0.98
2022-09-13T17:58:54.701Z,0.82
2022-09-13T18:01:37.462Z,0.47
2022-09-13T18:04:21.066Z,0.60
2022-09-13T18:07:03.748Z,0.57
2022-09-13T18:09:47.199Z,0.55
2022-09-13T18:12:29.886Z,0.52
2022-09-13T18:15:13.883Z,0.70
2022-09-13T18:17:56.642Z,0.52
2022-09-13T18:20:40.738Z,0.40
2022-09-13T18:23:23.637Z,0.70
2022-09-13T18:26:10.963Z,0.70
2022-09-13T18:28:56.020Z,0.50
2022-09-13T18:31:40.834Z,0.40
2022-09-13T18:34:27.440Z,0.47
2022-09-13T18:37:10.504Z,0.70
2022-09-13T18:39:53.185Z,0.70
2022-09-13T18:42:35.953Z,0.57
2022-09-13T18:45:18.652Z,0.70
2022-09-13T18:48:03.219Z,0.90
2022-09-13T18:50:46.097Z,0.52
2022-09-13T18:53:34.771Z,0.50
2022-09-13T18:56:19.890Z,0.70
2022-09-13T18:59:03.569Z,0.70
2022-09-13T19:01:46.641Z,0.85
2022-09-13T19:04:31.955Z,0.70
2022-09-13T19:07:14.968Z,0.57
2022-09-13T19:09:58.070Z,0.75
2022-09-13T19:12:41.040Z,0.50
2022-09-13T19:15:23.756Z,0.70
2022-09-13T19:18:06.580Z,0.50
2022-09-13T19:20:50.814Z,0.40
2022-09-13T19:24:00.909Z,0.52
2022-09-13T19:26:39.118Z,0.50
2022-09-13T19:29:23.032Z,0.55
2022-09-13T19:32:06.375Z,0.70
2022-09-13T19:34:49.413Z,0.30
2022-09-13T19:37:33.744Z,0.70
2022-09-13T19:40:16.704Z,0.50
2022-09-13T19:42:59.870Z,0.65
2022-09-13T19:45:42.604Z,0.65
2022-09-13T19:48:38.222Z,0.40
2022-09-13T19:51:22.273Z,0.47
2022-09-13T19:54:07.758Z,0.52
2022-09-13T19:56:51.065Z,0.57
2022-09-13T19:59:34.388Z,0.47
2022-09-13T20:02:16.999Z,0.60
2022-09-13T20:05:00.017Z,0.40
2022-09-13T20:07:44.584Z,0.70
2022-09-13T20:10:29.096Z,0.57
2022-09-13T20:13:12.100Z,0.30
2022-09-13T20:15:54.897Z,0.52
2022-09-13T20:18:37.713Z,0.43
2022-09-13T20:21:20.632Z,0.40
2022-09-13T20:24:04.545Z,0.45
2022-09-13T20:26:49.391Z,0.43
2022-09-13T20:29:32.469Z,0.50
2022-09-13T20:32:15.185Z,0.50
2022-09-13T20:34:58.177Z,0.60
2022-09-13T20:37:40.994Z,0.52
2022-09-13T20:40:25.039Z,0.50
2022-09-13T20:43:09.167Z,0.65
2022-09-13T20:45:56.519Z,0.30
2022-09-13T20:48:39.778Z,0.55
2022-09-13T20:51:24.377Z,0.52
2022-09-13T20:54:07.810Z,0.73
2022-09-13T20:56:51.249Z,0.60
2022-09-13T20:59:35.910Z,0.55
2022-09-13T21:02:18.743Z,0.50
2022-09-13T21:05:01.507Z,0.50
2022-09-13T21:08:01.538Z,0.50
2022-09-13T21:10:44.280Z,0.50
2022-09-13T21:13:27.032Z,0.68
2022-09-13T21:16:12.084Z,0.40
2022-09-13T21:18:55.133Z,0.50
2022-09-13T21:21:39.123Z,0.40
2022-09-13T21:24:21.804Z,0.70
2022-09-13T21:27:05.007Z,0.50
2022-09-13T21:29:47.641Z,0.40
2022-09-13T21:32:31.772Z,0.50
2022-09-13T21:35:14.407Z,0.52
2022-09-13T21:37:57.565Z,0.70
2022-09-13T21:40:41.226Z,0.50
2022-09-13T21:43:23.851Z,0.60
2022-09-13T21:46:08.985Z,0.50
2022-09-13T21:48:53.663Z,0.30
2022-09-13T21:51:37.294Z,0.50
2022-09-13T21:54:20.416Z,0.50
2022-09-13T21:57:03.086Z,0.40
2022-09-13T21:59:45.711Z,0.30
2022-09-13T22:02:29.067Z,0.65
2022-09-13T22:05:13.085Z,0.40
2022-09-13T22:07:55.773Z,0.52
2022-09-13T22:10:38.404Z,0.50
2022-09-13T22:13:21.080Z,0.45
2022-09-13T22:16:06.622Z,0.50
2022-09-13T22:18:50.236Z,0.50
2022-09-13T22:21:35.956Z,0.45
2022-09-13T22:24:19.326Z,0.50
2022-09-13T22:27:02.664Z,0.68
2022-09-13T22:29:45.327Z,0.43
2022-09-13T22:32:30.589Z,0.50
2022-09-13T22:35:13.366Z,0.47
2022-09-13T22:37:57.560Z,0.60
2022-09-13T22:40:40.528Z,0.40
2022-09-13T22:43:23.249Z,0.47
2022-09-13T22:46:09.522Z,0.60
2022-09-13T22:48:53.596Z,0.50
2022-09-13T22:51:36.211Z,0.40
2022-09-13T22:54:20.555Z,0.40
2022-09-13T22:57:03.167Z,0.75
2022-09-13T22:59:46.041Z,0.40
2022-09-13T23:02:28.691Z,0.50
2022-09-13T23:05:11.280Z,0.60
2022-09-13T23:07:54.076Z,0.30
2022-09-13T23:10:38.201Z,0.40
2022-09-13T23:13:21.062Z,0.68
2022-09-13T23:16:03.931Z,0.40
2022-09-13T23:18:47.027Z,0.50
2022-09-13T23:21:31.066Z,0.50
2022-09-13T23:24:14.944Z,0.55
2022-09-13T23:27:01.591Z,0.30
2022-09-13T23:29:44.333Z,0.40
2022-09-13T23:32:27.309Z,0.45
2022-09-13T23:35:10.363Z,0.60
2022-09-13T23:37:53.043Z,0.47
2022-09-13T23:40:36.100Z,0.60
2022-09-13T23:43:20.192Z,0.60
2022-09-13T23:46:03.092Z,0.70
2022-09-13T23:48:46.151Z,0.60
2022-09-13T23:51:29.403Z,0.63
2022-09-13T23:54:13.461Z,0.60
2022-09-13T23:56:56.176Z,0.50
2022-09-13T23:59:40.431Z,0.60
